Time;durP1;ratioP1;P1;durP2;ratioP2;P2;SDS_P1;SDS_P2;PMS_P1;PMS_P2;Temp;Humidity;BMP_temperature;BMP_pressure;BME280_temperature;BME280_humidity;BME280_pressure;Samples;Min_cycle;Max_cycle;Signal;HPM_P1;HPM_P2
2022/02/05 00:01:08;;;;;;;1.20;1.07;;;5.70;98.00;;;;;;5114632;28;20447;-70
2022/02/05 00:03:45;;;;;;;1.20;1.00;;;5.60;98.00;;;;;;5114858;28;20455;-71
2022/02/05 00:06:15;;;;;;;1.20;1.00;;;5.60;98.00;;;;;;5114769;28;20533;-71
2022/02/05 00:09:00;;;;;;;1.20;1.00;;;5.60;98.00;;;;;;5114078;28;20447;-71
2022/02/05 00:11:51;;;;;;;1.20;1.00;;;5.60;98.00;;;;;;5114649;28;20447;-71
2022/02/05 00:14:39;;;;;;;1.20;1.00;;;5.50;98.00;;;;;;5114558;28;20538;-70
2022/02/05 00:20:32;;;;;;;1.20;1.10;;;5.50;98.00;;;;;;5113557;28;20454;-71
2022/02/05 00:42:29;;;;;;;1.10;0.90;;;5.40;98.00;;;;;;5087322;27;20961;-71
2022/02/05 00:44:56;;;;;;;1.20;1.00;;;5.40;98.00;;;;;;5114165;28;20538;-71
2022/02/05 00:47:23;;;;;;;1.20;1.00;;;5.40;98.00;;;;;;5113964;28;20840;-71
2022/02/05 00:49:56;;;;;;;1.20;0.90;;;5.40;98.00;;;;;;5113914;28;20486;-71
2022/02/05 00:52:25;;;;;;;1.40;1.20;;;5.50;98.00;;;;;;5113849;28;20452;-71
2022/02/05 00:55:01;;;;;;;1.20;1.00;;;5.50;98.00;;;;;;5113855;28;20457;-71
2022/02/05 01:00:12;;;;;;;1.20;1.00;;;5.50;98.00;;;;;;5111013;28;20450;-71
2022/02/05 01:02:39;;;;;;;1.20;1.00;;;5.50;98.00;;;;;;5113905;28;20495;-71
2022/02/05 01:05:07;;;;;;;1.20;1.00;;;5.60;98.00;;;;;;5113500;27;20504;-71
2022/02/05 01:07:37;;;;;;;1.20;1.00;;;5.60;98.00;;;;;;5113876;28;20523;-71
2022/02/05 01:10:06;;;;;;;1.20;0.90;;;5.40;98.00;;;;;;5112488;28;20538;-71
2022/02/05 01:12:36;;;;;;;1.20;1.00;;;5.30;98.00;;;;;;5113948;28;20485;-71
2022/02/05 01:15:04;;;;;;;1.40;1.10;;;5.30;98.00;;;;;;5113615;28;20515;-71
2022/02/05 01:17:36;;;;;;;1.20;1.00;;;5.20;98.00;;;;;;5112436;28;21024;-71
2022/02/05 01:22:51;;;;;;;1.20;0.97;;;5.10;98.00;;;;;;5113490;28;20440;-71
2022/02/05 01:25:23;;;;;;;1.20;1.00;;;5.10;98.00;;;;;;5113167;28;20524;-71
2022/02/05 01:27:54;;;;;;;1.20;1.00;;;5.10;98.00;;;;;;5113347;28;20482;-71
2022/02/05 01:30:25;;;;;;;1.20;1.00;;;4.90;98.00;;;;;;5112898;28;20569;-71
2022/02/05 01:33:03;;;;;;;1.13;1.00;;;4.90;98.00;;;;;;5112991;28;20451;-71
2022/02/05 01:35:39;;;;;;;1.20;1.00;;;4.70;98.00;;;;;;5112701;28;20583;-71
2022/02/05 01:52:15;;;;;;;1.60;1.43;;;4.20;98.00;;;;;;5112927;28;20459;-70
2022/02/05 01:57:44;;;;;;;1.20;1.00;;;4.10;98.00;;;;;;5112728;28;20478;-71
2022/02/05 02:05:52;;;;;;;1.40;1.23;;;4.10;98.00;;;;;;5112671;28;20462;-71
2022/02/05 02:11:27;;;;;;;1.30;1.10;;;4.00;98.00;;;;;;5112584;28;20437;-70
2022/02/05 02:16:54;;;;;;;1.20;1.00;;;4.00;98.00;;;;;;5098978;28;20454;-71
2022/02/05 02:19:29;;;;;;;1.13;0.97;;;4.00;98.00;;;;;;5110445;28;20490;-70
2022/02/05 02:22:04;;;;;;;1.10;1.00;;;4.00;98.00;;;;;;5112430;28;20529;-70
2022/02/05 02:24:39;;;;;;;1.10;1.00;;;3.90;98.00;;;;;;5112498;28;20644;-70
2022/02/05 02:27:19;;;;;;;1.20;1.00;;;3.90;98.00;;;;;;5112265;28;20482;-71
2022/02/05 02:29:57;;;;;;;1.50;1.43;;;4.00;98.00;;;;;;5112551;28;20458;-71
2022/02/05 02:32:24;;;;;;;1.10;1.00;;;3.90;98.00;;;;;;5112261;28;20505;-71
2022/02/05 02:34:56;;;;;;;1.13;1.00;;;3.90;98.00;;;;;;5112159;28;20489;-71
2022/02/05 02:37:31;;;;;;;1.20;1.00;;;3.90;98.00;;;;;;5112239;28;20524;-71
2022/02/05 02:40:06;;;;;;;1.17;1.00;;;3.90;98.00;;;;;;5112437;28;20454;-71
2022/02/05 02:42:38;;;;;;;1.10;1.00;;;3.90;98.00;;;;;;5112103;28;20459;-71
2022/02/05 02:45:06;;;;;;;1.17;1.00;;;4.00;98.00;;;;;;5111982;28;20464;-71
2022/02/05 02:47:33;;;;;;;1.10;0.90;;;4.00;98.00;;;;;;5111912;28;20446;-71
2022/02/05 02:50:05;;;;;;;1.17;1.00;;;3.90;98.00;;;;;;5111967;28;20514;-71
2022/02/05 02:58:06;;;;;;;1.10;0.90;;;3.90;98.00;;;;;;5111743;28;20486;-71
2022/02/05 03:00:34;;;;;;;1.20;1.00;;;3.80;98.00;;;;;;5111956;28;20540;-71
2022/02/05 03:03:01;;;;;;;1.20;1.00;;;3.60;98.00;;;;;;5111710;28;20459;-71
2022/02/05 03:05:28;;;;;;;1.20;1.10;;;3.60;98.00;;;;;;5111665;28;20487;-71
2022/02/05 03:07:56;;;;;;;1.20;1.00;;;3.60;98.00;;;;;;5111813;28;20479;-71
2022/02/05 03:10:23;;;;;;;1.43;1.40;;;3.60;98.00;;;;;;5111845;28;20506;-71
2022/02/05 03:12:50;;;;;;;1.10;0.90;;;3.70;98.00;;;;;;5111789;28;20459;-71
2022/02/05 03:15:20;;;;;;;1.10;0.90;;;3.70;98.00;;;;;;5111500;28;20504;-71
2022/02/05 03:17:56;;;;;;;1.10;0.90;;;3.60;98.00;;;;;;5111794;28;20505;-71
2022/02/05 03:20:24;;;;;;;2.97;1.67;;;3.70;98.00;;;;;;5111585;28;20450;-71
2022/02/05 03:22:51;;;;;;;1.20;1.00;;;3.60;98.00;;;;;;5111771;28;20547;-71
2022/02/05 03:25:19;;;;;;;1.20;1.10;;;3.60;98.00;;;;;;5111813;28;20866;-71
2022/02/05 03:27:46;;;;;;;1.10;1.00;;;3.60;98.00;;;;;;5111895;28;20496;-71
2022/02/05 03:30:13;;;;;;;1.13;1.00;;;3.60;98.00;;;;;;5111323;28;20466;-71
2022/02/05 03:32:41;;;;;;;1.10;1.00;;;3.60;98.00;;;;;;5111715;28;20501;-71
2022/02/05 03:35:08;;;;;;;1.20;0.97;;;3.60;98.00;;;;;;5111494;28;20489;-71
2022/02/05 03:37:48;;;;;;;1.17;1.00;;;3.60;98.00;;;;;;5111647;28;20838;-71
2022/02/05 03:40:15;;;;;;;1.30;1.10;;;3.60;98.00;;;;;;5111662;28;20586;-71
2022/02/05 03:42:44;;;;;;;1.17;0.90;;;3.60;98.00;;;;;;5112923;28;20501;-71
2022/02/05 03:45:11;;;;;;;1.20;1.00;;;3.50;98.00;;;;;;5114936;28;20458;-71
2022/02/05 03:47:38;;;;;;;1.20;1.00;;;3.60;98.00;;;;;;5114680;28;20455;-71
2022/02/05 03:50:07;;;;;;;1.20;0.90;;;3.60;98.00;;;;;;5114826;28;21030;-71
2022/02/05 03:52:34;;;;;;;1.20;1.10;;;3.60;98.00;;;;;;5114697;28;20984;-70
2022/02/05 03:55:01;;;;;;;1.20;1.00;;;3.70;98.00;;;;;;5115358;28;20455;-70
2022/02/05 03:57:29;;;;;;;1.17;1.00;;;3.70;98.00;;;;;;5113828;28;20447;-70
2022/02/05 03:59:57;;;;;;;1.77;1.13;;;3.60;98.00;;;;;;5115075;28;20514;-71
2022/02/05 04:02:24;;;;;;;1.20;1.10;;;3.60;98.00;;;;;;5114515;28;20532;-70
2022/02/05 04:04:51;;;;;;;1.10;1.10;;;3.60;98.00;;;;;;5113659;28;20481;-70
2022/02/05 04:07:19;;;;;;;1.30;1.20;;;3.60;98.00;;;;;;5114519;28;20458;-70
2022/02/05 04:09:47;;;;;;;1.30;1.07;;;3.60;98.00;;;;;;5114346;28;20515;-70
2022/02/05 04:17:44;;;;;;;1.10;0.93;;;3.70;98.00;;;;;;5114542;28;20928;-71
2022/02/05 04:20:12;;;;;;;1.10;1.00;;;3.70;98.00;;;;;;5114368;28;20486;-70
2022/02/05 04:22:41;;;;;;;1.10;1.00;;;3.60;98.00;;;;;;5113513;28;20483;-71
2022/02/05 04:25:11;;;;;;;1.27;1.07;;;3.70;98.00;;;;;;5113228;28;20587;-70
2022/02/05 04:27:39;;;;;;;1.10;1.00;;;3.60;98.00;;;;;;5114201;28;20455;-70
2022/02/05 04:30:08;;;;;;;1.17;1.00;;;3.60;98.00;;;;;;5113782;28;20495;-70
2022/02/05 04:32:36;;;;;;;1.10;0.97;;;3.70;98.00;;;;;;5114267;28;20534;-71
2022/02/05 04:35:03;;;;;;;1.10;0.90;;;3.80;98.00;;;;;;5114100;28;20954;-70
2022/02/05 04:37:31;;;;;;;1.10;1.00;;;3.70;98.00;;;;;;5112881;28;20479;-70
2022/02/05 04:40:09;;;;;;;1.20;1.03;;;3.60;98.00;;;;;;5114016;28;20487;-70
2022/02/05 04:42:45;;;;;;;1.10;0.93;;;3.60;98.00;;;;;;5112968;28;20473;-70
2022/02/05 04:45:39;;;;;;;1.10;0.90;;;3.60;98.00;;;;;;5114060;28;20874;-71
2022/02/05 04:51:27;;;;;;;1.30;1.20;;;3.60;98.00;;;;;;5050592;28;20549;-70
2022/02/05 04:56:50;;;;;;;1.10;1.00;;;3.80;98.00;;;;;;5100193;28;20933;-70
2022/02/05 04:59:48;;;;;;;1.20;1.00;;;3.80;98.00;;;;;;5113692;28;20485;-70
2022/02/05 05:02:40;;;;;;;1.10;1.00;;;3.90;98.00;;;;;;5113714;28;20486;-70
2022/02/05 05:05:20;;;;;;;1.20;1.20;;;4.00;98.00;;;;;;5113670;28;20447;-70
2022/02/05 05:08:12;;;;;;;1.20;1.00;;;3.90;98.00;;;;;;5112650;28;20932;-70
2022/02/05 05:10:58;;;;;;;1.10;1.00;;;3.90;98.00;;;;;;5113614;28;20924;-70
2022/02/05 05:15:12;;;;;;;1.17;0.90;;;4.00;98.00;;;;;;5113724;28;20466;-71
2022/02/05 05:19:26;;;;;;;1.17;1.00;;;3.80;98.00;;;;;;5113655;28;20502;-70
2022/02/05 05:21:53;;;;;;;1.20;1.10;;;3.80;98.00;;;;;;5113840;28;20459;-70
2022/02/05 05:24:20;;;;;;;1.83;1.27;;;3.80;98.00;;;;;;5112181;28;20451;-70
2022/02/05 05:26:47;;;;;;;1.20;1.00;;;3.80;98.00;;;;;;5113502;28;20455;-71
2022/02/05 05:29:14;;;;;;;1.10;1.00;;;4.00;98.00;;;;;;5113736;28;20849;-70
2022/02/05 05:31:42;;;;;;;1.10;1.00;;;4.10;98.00;;;;;;5113541;28;20486;-70
2022/02/05 05:34:11;;;;;;;1.10;1.00;;;4.10;98.00;;;;;;5113279;28;20455;-70
2022/02/05 05:36:38;;;;;;;1.20;1.00;;;4.10;98.00;;;;;;5112980;28;20491;-70
2022/02/05 05:39:05;;;;;;;1.20;1.00;;;3.90;98.00;;;;;;5112753;28;20528;-71
2022/02/05 05:41:36;;;;;;;1.40;1.33;;;3.90;98.00;;;;;;5113014;28;20455;-71
2022/02/05 05:44:15;;;;;;;1.30;1.20;;;4.00;98.00;;;;;;5113042;28;20800;-70
2022/02/05 05:46:45;;;;;;;1.20;1.00;;;4.10;98.00;;;;;;5112603;28;20482;-70
2022/02/05 05:49:17;;;;;;;1.20;1.00;;;4.10;98.00;;;;;;5112836;28;20454;-71
2022/02/05 05:51:46;;;;;;;1.10;0.97;;;3.90;98.00;;;;;;5112469;28;20462;-71
2022/02/05 05:54:13;;;;;;;1.20;1.00;;;3.90;98.00;;;;;;5112318;28;20527;-70
2022/02/05 05:56:42;;;;;;;1.10;1.00;;;3.90;98.00;;;;;;5112743;28;20929;-71
2022/02/05 05:59:12;;;;;;;1.10;1.00;;;3.90;98.00;;;;;;5112601;28;20831;-70
2022/02/05 06:01:39;;;;;;;1.10;1.00;;;3.90;98.00;;;;;;5112454;28;20512;-70
2022/02/05 06:04:12;;;;;;;1.20;1.00;;;3.80;98.00;;;;;;5112488;28;20570;-70
2022/02/05 06:06:40;;;;;;;1.20;1.07;;;3.80;98.00;;;;;;5112088;28;20458;-71
2022/02/05 06:09:09;;;;;;;1.10;1.00;;;3.90;98.00;;;;;;5112363;28;20483;-70
2022/02/05 06:11:36;;;;;;;1.10;1.00;;;3.90;98.00;;;;;;5112430;28;20986;-70
2022/02/05 06:14:03;;;;;;;1.20;1.00;;;4.10;98.00;;;;;;5112462;28;20949;-70
2022/02/05 06:16:33;;;;;;;1.20;1.00;;;4.20;98.00;;;;;;5112459;28;20451;-70
2022/02/05 06:19:00;;;;;;;1.20;1.00;;;4.20;98.00;;;;;;5112435;28;20509;-70
2022/02/05 06:21:29;;;;;;;1.20;1.00;;;4.20;98.00;;;;;;5112228;28;20621;-70
2022/02/05 06:23:57;;;;;;;1.13;1.00;;;4.10;98.00;;;;;;5112433;28;20452;-70
2022/02/05 06:26:24;;;;;;;1.10;1.00;;;4.10;98.00;;;;;;5112096;28;20552;-70
2022/02/05 06:28:52;;;;;;;2.13;1.00;;;4.10;98.00;;;;;;5112394;28;20452;-70
2022/02/05 06:31:20;;;;;;;1.10;1.00;;;4.00;98.00;;;;;;5112121;28;20550;-70
2022/02/05 06:33:47;;;;;;;1.20;1.00;;;4.10;98.00;;;;;;5112452;28;21081;-71
2022/02/05 06:36:16;;;;;;;1.10;1.00;;;4.10;98.00;;;;;;5111030;28;20541;-70
2022/02/05 06:38:43;;;;;;;1.13;1.00;;;4.20;98.00;;;;;;5112048;28;20471;-70
2022/02/05 06:41:11;;;;;;;1.40;1.17;;;4.40;98.00;;;;;;5112166;28;20483;-70
2022/02/05 06:43:38;;;;;;;1.10;1.00;;;4.30;98.00;;;;;;5112286;28;20511;-70
2022/02/05 06:46:05;;;;;;;1.37;1.37;;;4.30;98.00;;;;;;5112048;28;20496;-70
2022/02/05 06:48:32;;;;;;;1.20;1.07;;;4.40;98.00;;;;;;5112232;28;20539;-70
2022/02/05 06:51:00;;;;;;;1.20;1.10;;;4.50;98.00;;;;;;5112015;28;20489;-70
2022/02/05 06:53:28;;;;;;;1.20;1.00;;;4.50;98.00;;;;;;5112396;28;20972;-70
2022/02/05 06:55:55;;;;;;;1.60;1.57;;;4.50;98.00;;;;;;5112210;28;20455;-70
2022/02/05 06:58:23;;;;;;;1.50;1.13;;;4.50;98.00;;;;;;5112260;28;20455;-71
2022/02/05 07:00:51;;;;;;;1.20;1.00;;;4.60;98.00;;;;;;5111703;28;20539;-70
2022/02/05 07:03:21;;;;;;;1.40;1.30;;;4.50;98.00;;;;;;5111595;28;20522;-70
2022/02/05 07:05:48;;;;;;;1.20;1.00;;;4.50;98.00;;;;;;5110309;28;20492;-71
2022/02/05 07:08:15;;;;;;;1.10;1.00;;;4.40;98.00;;;;;;5111672;28;20515;-70
2022/02/05 07:10:42;;;;;;;1.43;1.30;;;4.40;98.00;;;;;;5111546;28;20490;-70
2022/02/05 07:13:14;;;;;;;1.10;1.00;;;4.40;98.00;;;;;;5111838;28;20934;-70
2022/02/05 07:15:49;;;;;;;1.20;1.00;;;4.30;98.00;;;;;;5111718;28;20500;-70
2022/02/05 07:18:25;;;;;;;1.10;1.00;;;4.30;98.00;;;;;;5112722;28;20454;-70
2022/02/05 07:20:56;;;;;;;1.10;1.00;;;4.20;98.00;;;;;;5115345;28;20504;-70
2022/02/05 07:31:40;;;;;;;1.10;1.00;;;4.20;98.00;;;;;;5115741;28;20442;-70
2022/02/05 07:34:07;;;;;;;1.20;1.00;;;4.20;98.00;;;;;;5115506;28;20450;-70
2022/02/05 07:36:35;;;;;;;1.20;1.00;;;4.20;98.00;;;;;;5115298;28;20546;-71
2022/02/05 07:39:02;;;;;;;1.20;1.10;;;4.20;98.00;;;;;;5114894;28;20543;-71
2022/02/05 07:41:29;;;;;;;1.20;1.10;;;4.30;98.00;;;;;;5114186;28;20512;-71
2022/02/05 07:43:56;;;;;;;1.10;1.00;;;4.20;98.00;;;;;;5115343;28;20930;-70
2022/02/05 07:46:24;;;;;;;1.10;0.90;;;4.20;98.00;;;;;;5115274;28;20463;-70
2022/02/05 07:48:52;;;;;;;2.47;1.20;;;4.30;98.00;;;;;;5115160;28;20483;-70
2022/02/05 07:51:20;;;;;;;1.10;1.00;;;4.30;98.00;;;;;;5114740;28;20459;-71
2022/02/05 07:53:47;;;;;;;1.10;1.00;;;4.30;98.00;;;;;;5113716;28;20956;-70
2022/02/05 07:56:17;;;;;;;1.23;1.10;;;4.40;98.00;;;;;;5114887;28;20848;-70
2022/02/05 07:58:45;;;;;;;1.20;1.00;;;4.50;98.00;;;;;;5113878;28;20461;-70
2022/02/05 08:01:12;;;;;;;1.30;1.13;;;4.60;98.00;;;;;;5114740;28;20490;-71
2022/02/05 08:03:39;;;;;;;1.33;1.30;;;4.60;98.00;;;;;;5115225;28;20877;-71
2022/02/05 08:06:14;;;;;;;1.17;1.00;;;4.60;98.00;;;;;;5114982;28;20494;-71
2022/02/05 08:08:42;;;;;;;1.10;0.90;;;4.60;98.00;;;;;;5114943;28;20450;-71
2022/02/05 08:11:13;;;;;;;1.20;1.00;;;4.70;98.00;;;;;;5114328;28;20447;-71
2022/02/05 08:13:42;;;;;;;1.13;1.00;;;4.80;98.00;;;;;;5115032;28;20458;-71
2022/02/05 08:16:11;;;;;;;1.20;1.00;;;4.80;98.00;;;;;;5114822;28;20451;-71
2022/02/05 08:18:39;;;;;;;1.10;1.00;;;4.90;98.00;;;;;;5114954;28;20490;-71
2022/02/05 08:21:08;;;;;;;1.10;1.00;;;4.90;98.00;;;;;;5114428;28;20479;-71
2022/02/05 08:23:35;;;;;;;1.10;1.00;;;4.90;98.00;;;;;;5114550;28;20534;-72
2022/02/05 08:26:04;;;;;;;1.93;1.23;;;4.80;98.00;;;;;;5114516;28;20487;-72
2022/02/05 08:28:31;;;;;;;1.20;1.00;;;4.70;98.00;;;;;;5113883;28;20457;-71
2022/02/05 08:30:58;;;;;;;1.10;1.00;;;4.80;98.00;;;;;;5114359;28;20829;-72
2022/02/05 08:33:25;;;;;;;1.20;1.00;;;4.80;98.00;;;;;;5113482;28;20446;-71
2022/02/05 08:35:52;;;;;;;3.40;1.40;;;4.90;98.00;;;;;;5112462;28;20499;-70
2022/02/05 08:38:21;;;;;;;1.20;1.00;;;4.90;98.00;;;;;;5112472;28;20483;-71
2022/02/05 08:40:48;;;;;;;1.20;1.00;;;5.00;98.00;;;;;;5114086;28;20483;-71
2022/02/05 08:43:15;;;;;;;1.13;1.00;;;5.00;98.00;;;;;;5113568;28;20543;-73
2022/02/05 08:45:42;;;;;;;1.20;1.17;;;5.10;98.00;;;;;;5113722;28;20456;-69
2022/02/05 08:48:09;;;;;;;1.10;1.00;;;5.10;98.00;;;;;;5112809;28;20508;-71
2022/02/05 08:50:37;;;;;;;1.17;1.00;;;5.10;98.00;;;;;;5113924;28;20622;-71
2022/02/05 08:53:04;;;;;;;1.17;0.90;;;5.20;98.00;;;;;;5112741;28;20976;-71
2022/02/05 08:55:35;;;;;;;1.30;1.20;;;5.30;98.00;;;;;;5113864;28;20459;-70
2022/02/05 08:58:07;;;;;;;1.17;1.00;;;5.30;98.00;;;;;;5113854;28;20510;-71
2022/02/05 09:00:43;;;;;;;1.40;1.20;;;5.40;98.00;;;;;;5111813;28;20483;-71
2022/02/05 09:03:14;;;;;;;1.20;1.00;;;5.50;98.00;;;;;;5112651;28;20995;-71
2022/02/05 09:06:01;;;;;;;1.20;1.00;;;5.60;98.00;;;;;;5111736;28;20467;-71
2022/02/05 09:08:33;;;;;;;1.10;1.00;;;5.60;98.00;;;;;;5113520;28;20464;-71
2022/02/05 09:11:12;;;;;;;1.20;0.90;;;5.70;98.00;;;;;;5113651;27;20451;-71
2022/02/05 09:13:55;;;;;;;1.20;1.00;;;5.70;98.00;;;;;;5113661;28;20474;-71
2022/02/05 09:16:22;;;;;;;1.30;1.10;;;5.80;98.00;;;;;;5113249;28;20455;-70
2022/02/05 09:18:49;;;;;;;1.20;1.00;;;5.90;98.00;;;;;;5113711;28;20844;-70
2022/02/05 09:21:18;;;;;;;1.20;1.00;;;5.80;98.00;;;;;;5112417;28;20484;-71
2022/02/05 09:23:52;;;;;;;1.20;1.07;;;5.80;98.00;;;;;;5111270;28;20891;-71
2022/02/05 09:26:21;;;;;;;1.20;1.20;;;5.90;98.00;;;;;;5111303;28;20456;-70
2022/02/05 09:28:48;;;;;;;1.20;1.00;;;5.70;98.00;;;;;;5111920;28;20456;-71
2022/02/05 09:31:27;;;;;;;1.50;1.00;;;5.70;98.00;;;;;;5112319;28;20822;-71
2022/02/05 09:33:59;;;;;;;1.10;0.90;;;5.70;98.00;;;;;;5113184;28;20460;-71
2022/02/05 09:36:26;;;;;;;1.20;1.00;;;5.80;98.00;;;;;;5112949;28;20469;-71
2022/02/05 09:38:55;;;;;;;1.20;0.90;;;5.90;98.00;;;;;;5113269;28;20493;-71
2022/02/05 09:41:25;;;;;;;1.20;1.00;;;5.90;98.00;;;;;;5112317;28;20570;-71
2022/02/05 09:43:52;;;;;;;1.20;1.00;;;5.80;98.00;;;;;;5113058;28;20872;-71
2022/02/05 09:46:21;;;;;;;1.20;1.00;;;5.90;98.00;;;;;;5113352;28;20475;-71
2022/02/05 09:48:49;;;;;;;1.17;1.00;;;5.90;98.00;;;;;;5113148;28;20534;-71
2022/02/05 09:51:18;;;;;;;1.20;1.00;;;5.90;98.00;;;;;;5112827;28;20503;-71
2022/02/05 09:53:49;;;;;;;1.40;1.13;;;6.00;98.00;;;;;;5113060;28;20490;-71
2022/02/05 09:56:17;;;;;;;1.10;1.00;;;6.00;98.00;;;;;;5112509;28;20496;-71
2022/02/05 09:58:46;;;;;;;1.20;1.00;;;6.00;98.00;;;;;;5112677;28;20456;-71
2022/02/05 10:01:17;;;;;;;1.30;1.20;;;6.00;98.00;;;;;;5112746;28;20575;-71
2022/02/05 10:03:45;;;;;;;1.13;1.00;;;6.00;98.00;;;;;;5112472;28;20536;-71
2022/02/05 10:06:17;;;;;;;1.20;1.00;;;6.00;98.00;;;;;;5112350;28;20446;-71
2022/02/05 10:08:47;;;;;;;1.20;0.90;;;6.00;98.00;;;;;;5112540;28;20486;-71
2022/02/05 10:11:14;;;;;;;1.17;1.00;;;6.00;98.00;;;;;;5112559;28;20490;-71
2022/02/05 10:13:42;;;;;;;1.20;1.00;;;6.10;98.00;;;;;;5112350;28;20490;-71
2022/02/05 10:16:12;;;;;;;1.10;1.00;;;6.10;98.00;;;;;;5112064;28;20447;-71
2022/02/05 10:18:43;;;;;;;1.20;1.00;;;6.30;98.00;;;;;;5111084;28;20456;-70
2022/02/05 10:21:22;;;;;;;1.20;1.10;;;6.40;98.00;;;;;;5112173;28;20487;-69
2022/02/05 10:23:58;;;;;;;1.30;1.10;;;6.50;98.00;;;;;;5109447;28;20471;-73
2022/02/05 10:26:32;;;;;;;1.20;1.17;;;6.60;98.00;;;;;;5109481;28;20504;-74
2022/02/05 10:29:01;;;;;;;1.43;1.40;;;6.70;98.00;;;;;;5109489;28;20452;-70
2022/02/05 10:31:31;;;;;;;1.20;1.00;;;7.00;98.00;;;;;;5109534;28;20811;-70
2022/02/05 10:34:10;;;;;;;1.20;1.00;;;7.10;98.00;;;;;;5109477;28;20459;-73
2022/02/05 10:36:42;;;;;;;1.20;1.00;;;7.20;98.00;;;;;;5100522;28;20454;-73
2022/02/05 10:39:15;;;;;;;1.20;1.00;;;7.30;98.00;;;;;;5109530;28;21090;-72
2022/02/05 10:44:34;;;;;;;1.20;1.00;;;7.30;98.00;;;;;;5108083;28;20535;-73
2022/02/05 10:47:04;;;;;;;1.20;1.00;;;7.30;98.00;;;;;;5108943;28;20552;-72
2022/02/05 10:49:39;;;;;;;1.20;1.03;;;7.40;98.00;;;;;;5107945;28;20548;-71
2022/02/05 10:52:07;;;;;;;1.20;0.90;;;7.40;98.00;;;;;;5090039;28;20461;-71
2022/02/05 10:54:52;;;;;;;1.20;1.00;;;7.60;98.00;;;;;;5092607;28;20486;-72
2022/02/05 10:57:25;;;;;;;1.20;0.90;;;7.70;98.00;;;;;;5092293;28;20839;-72
2022/02/05 11:05:09;;;;;;;1.20;1.00;;;7.60;98.00;;;;;;5092675;28;20459;-72
2022/02/05 11:05:39;;;;;;;1.20;0.90;;;7.60;98.00;;;;;;5092223;28;20505;-72
2022/02/05 11:08:08;;;;;;;1.40;1.20;;;7.70;98.00;;;;;;5092472;28;20932;-72
2022/02/05 11:19:10;;;;;;;1.20;1.00;;;7.80;98.00;;;;;;5091694;28;20454;-72
2022/02/05 11:21:39;;;;;;;1.20;1.00;;;8.00;98.00;;;;;;5092247;28;20488;-72
2022/02/05 11:24:08;;;;;;;1.20;1.00;;;8.10;98.00;;;;;;5090590;28;20539;-72
2022/02/05 11:26:38;;;;;;;1.20;1.00;;;8.00;98.00;;;;;;5091984;28;20969;-72
2022/02/05 11:29:06;;;;;;;1.20;1.00;;;7.90;98.00;;;;;;5091917;28;20954;-72
2022/02/05 11:31:36;;;;;;;1.20;1.03;;;7.80;98.00;;;;;;5091846;28;20486;-72
2022/02/05 11:34:21;;;;;;;1.20;1.00;;;7.80;98.00;;;;;;5090322;28;20461;-72
2022/02/05 11:37:00;;;;;;;1.20;1.00;;;8.00;98.00;;;;;;5091741;28;20492;-72
2022/02/05 11:39:27;;;;;;;1.20;1.00;;;8.10;98.00;;;;;;5091696;28;20463;-72
2022/02/05 11:41:56;;;;;;;1.20;1.00;;;8.00;98.00;;;;;;5092065;28;20571;-72
2022/02/05 11:44:29;;;;;;;1.20;1.00;;;8.00;98.00;;;;;;5091686;28;20468;-72
2022/02/05 11:47:25;;;;;;;1.87;1.47;;;7.90;98.00;;;;;;5091988;28;20478;-72
2022/02/05 11:50:19;;;;;;;1.20;1.00;;;8.10;98.00;;;;;;5090213;28;20462;-72
2022/02/05 11:53:09;;;;;;;1.20;1.00;;;8.20;98.00;;;;;;5091287;28;20491;-71
2022/02/05 11:55:42;;;;;;;1.20;1.00;;;8.10;98.00;;;;;;5091183;28;20465;-72
2022/02/05 11:58:10;;;;;;;1.20;1.00;;;8.10;98.00;;;;;;5083219;28;20448;-71
2022/02/05 12:00:39;;;;;;;1.20;1.00;;;8.10;98.00;;;;;;5091038;28;20569;-72
2022/02/05 12:03:35;;;;;;;1.20;0.90;;;8.00;98.00;;;;;;5090543;28;20487;-71
2022/02/05 12:06:09;;;;;;;1.17;0.90;;;8.10;98.00;;;;;;5089550;28;20462;-72
2022/02/05 12:08:39;;;;;;;1.20;1.00;;;8.10;98.00;;;;;;5091065;28;20509;-72
2022/02/05 12:11:24;;;;;;;1.20;0.90;;;8.10;98.00;;;;;;5089532;28;20482;-72
2022/02/05 12:14:12;;;;;;;1.20;1.00;;;8.00;98.00;;;;;;5090907;28;20480;-71
2022/02/05 12:16:39;;;;;;;1.20;1.17;;;8.20;98.00;;;;;;5090779;28;20517;-71
2022/02/05 12:19:14;;;;;;;1.20;1.10;;;8.10;98.00;;;;;;5091247;28;20551;-72
2022/02/05 12:22:04;;;;;;;1.20;1.00;;;8.00;98.00;;;;;;5081566;28;20520;-72
2022/02/05 12:25:11;;;;;;;1.20;1.00;;;8.20;98.00;;;;;;5090322;28;20456;-72
2022/02/05 12:27:39;;;;;;;1.20;1.00;;;8.30;98.00;;;;;;5091114;28;20457;-72
2022/02/05 12:30:36;;;;;;;1.20;1.00;;;8.40;98.00;;;;;;5090925;28;20459;-72
2022/02/05 12:33:05;;;;;;;3.67;2.07;;;8.30;96.50;;;;;;5085133;28;20570;-72
2022/02/05 12:35:32;;;;;;;1.20;1.00;;;8.20;97.70;;;;;;5090635;28;20889;-72
2022/02/05 12:38:06;;;;;;;1.20;1.00;;;8.10;98.00;;;;;;5090430;28;20483;-72
2022/02/05 12:40:43;;;;;;;1.20;1.00;;;8.10;96.10;;;;;;5090810;28;20518;-72
2022/02/05 12:43:10;;;;;;;1.20;1.00;;;7.90;97.00;;;;;;5090625;28;20750;-71
2022/02/05 12:45:46;;;;;;;1.20;1.03;;;7.90;98.00;;;;;;5090556;28;20467;-72
2022/02/05 12:48:14;;;;;;;1.20;1.00;;;7.90;97.50;;;;;;5090481;28;20456;-73
2022/02/05 12:50:44;;;;;;;1.20;0.90;;;7.90;96.90;;;;;;5087585;28;20487;-73
2022/02/05 12:53:13;;;;;;;1.20;1.03;;;7.80;98.00;;;;;;5088775;28;20864;-71
2022/02/05 12:55:45;;;;;;;1.20;1.00;;;7.90;98.00;;;;;;5090193;28;20515;-71
2022/02/05 12:58:18;;;;;;;1.20;1.00;;;8.80;98.00;;;;;;5090096;28;20448;-71
2022/02/05 13:00:46;;;;;;;1.20;1.00;;;9.90;98.00;;;;;;5092566;28;20489;-72
2022/02/05 13:03:24;;;;;;;1.20;1.10;;;10.80;98.00;;;;;;5092548;28;20488;-71
2022/02/05 13:05:51;;;;;;;1.30;1.10;;;10.70;91.90;;;;;;5092661;28;20561;-71
2022/02/05 13:08:19;;;;;;;1.20;1.00;;;10.30;90.20;;;;;;5092481;28;20452;-71
2022/02/05 13:10:49;;;;;;;1.20;0.90;;;9.80;91.20;;;;;;5092406;28;20491;-71
2022/02/05 13:13:16;;;;;;;1.20;1.00;;;9.40;92.30;;;;;;5092392;28;20956;-70
2022/02/05 13:15:43;;;;;;;1.20;1.00;;;9.30;93.20;;;;;;5091132;28;20866;-71
2022/02/05 13:18:20;;;;;;;1.20;1.00;;;9.20;93.50;;;;;;5092307;28;20934;-71
2022/02/05 13:26:28;;;;;;;1.20;1.00;;;8.80;94.40;;;;;;5092280;28;20445;-71
2022/02/05 13:34:34;;;;;;;1.50;1.40;;;8.60;94.20;;;;;;5090897;28;20506;-70
2022/02/05 13:37:10;;;;;;;1.20;1.00;;;8.60;95.40;;;;;;5091980;28;20465;-71
2022/02/05 13:39:55;;;;;;;1.20;1.00;;;8.50;94.40;;;;;;5091888;28;20455;-70
2022/02/05 13:42:28;;;;;;;1.50;1.40;;;8.30;94.80;;;;;;5091684;28;20488;-71
2022/02/05 13:44:59;;;;;;;1.70;1.20;;;8.30;94.60;;;;;;5091880;28;20452;-70
2022/02/05 13:47:29;;;;;;;1.30;1.27;;;8.20;93.90;;;;;;5091674;28;20833;-70
2022/02/05 13:50:18;;;;;;;1.20;1.00;;;8.10;94.60;;;;;;5091820;28;20547;-71
2022/02/05 13:52:48;;;;;;;1.20;1.00;;;7.90;93.50;;;;;;5091660;28;20499;-71
2022/02/05 13:55:22;;;;;;;1.20;1.00;;;7.90;94.50;;;;;;5091787;28;20468;-70
2022/02/05 13:57:57;;;;;;;1.20;1.00;;;7.80;95.60;;;;;;5091863;28;20493;-69
2022/02/05 14:00:36;;;;;;;1.20;0.90;;;7.70;95.70;;;;;;5091728;28;20957;-71
2022/02/05 14:03:05;;;;;;;1.20;0.90;;;7.80;96.80;;;;;;5091821;28;20489;-70
2022/02/05 14:05:32;;;;;;;1.20;0.90;;;7.70;95.40;;;;;;5091604;28;20492;-70
2022/02/05 14:07:59;;;;;;;1.60;1.10;;;7.80;95.40;;;;;;5091581;28;20479;-70
2022/02/05 14:10:31;;;;;;;1.20;1.00;;;7.90;95.30;;;;;;5091338;28;20500;-70
2022/02/05 14:12:59;;;;;;;1.20;1.00;;;8.00;94.20;;;;;;5091376;28;20462;-70
2022/02/05 14:15:29;;;;;;;1.20;1.00;;;7.90;94.80;;;;;;5091207;28;20844;-70
2022/02/05 14:18:07;;;;;;;1.20;0.97;;;8.00;95.50;;;;;;5091271;28;20488;-70
2022/02/05 14:20:48;;;;;;;1.20;0.90;;;8.10;95.00;;;;;;5091312;28;20528;-71
2022/02/05 14:23:17;;;;;;;1.20;0.90;;;8.20;95.40;;;;;;5091383;28;20494;-71
2022/02/05 14:25:53;;;;;;;1.20;0.90;;;8.40;94.90;;;;;;5091058;28;20516;-71
2022/02/05 14:28:29;;;;;;;1.20;1.00;;;8.50;93.90;;;;;;5091484;28;20531;-72
2022/02/05 14:31:09;;;;;;;1.20;1.00;;;8.50;94.10;;;;;;5091277;28;20458;-72
2022/02/05 14:34:04;;;;;;;1.20;1.00;;;8.70;93.80;;;;;;5091976;28;20452;-71
2022/02/05 14:36:50;;;;;;;1.20;1.00;;;8.80;93.20;;;;;;5091296;28;20468;-71
2022/02/05 14:42:11;;;;;;;1.20;0.90;;;9.30;93.30;;;;;;5091072;28;20833;-71
2022/02/05 14:44:39;;;;;;;1.57;1.50;;;9.80;89.90;;;;;;5090694;28;20552;-71
2022/02/05 14:47:07;;;;;;;1.20;1.00;;;10.40;89.40;;;;;;5090961;28;20532;-71
2022/02/05 14:49:35;;;;;;;1.20;1.00;;;11.20;87.80;;;;;;5091045;28;20517;-71
2022/02/05 14:52:02;;;;;;;1.20;1.20;;;11.80;86.60;;;;;;5090906;28;20453;-71
2022/02/05 14:54:29;;;;;;;1.20;1.03;;;12.40;85.30;;;;;;5090732;28;20456;-71
2022/02/05 14:56:57;;;;;;;1.20;1.00;;;12.90;84.50;;;;;;5089269;28;20463;-71
2022/02/05 14:59:26;;;;;;;1.20;1.00;;;13.30;82.10;;;;;;5090846;28;20876;-69
2022/02/05 15:01:53;;;;;;;1.20;1.00;;;13.60;80.50;;;;;;5090807;28;20518;-69
2022/02/05 15:04:20;;;;;;;1.20;1.10;;;13.70;78.70;;;;;;5090873;28;20463;-69
2022/02/05 15:06:48;;;;;;;1.20;1.00;;;13.80;79.80;;;;;;5090892;28;20864;-69
2022/02/05 15:09:16;;;;;;;1.20;1.00;;;14.20;79.20;;;;;;5090764;28;20547;-69
2022/02/05 15:11:43;;;;;;;1.20;1.00;;;14.60;77.90;;;;;;5090632;28;20445;-69
2022/02/05 15:14:10;;;;;;;1.20;1.10;;;14.90;76.90;;;;;;5090914;28;21017;-69